createdAt,value
2022-12-03T00:02:56.835Z,42.40
2022-12-03T00:07:59.962Z,36.30
2022-12-03T00:13:03.121Z,43.10
2022-12-03T00:18:08.927Z,41.50
2022-12-03T00:23:11.799Z,46.80
2022-12-03T00:28:17.749Z,42.80
2022-12-03T00:33:22.067Z,37.50
2022-12-03T00:38:24.934Z,41.40
2022-12-03T00:43:28.003Z,44.30
2022-12-03T00:48:33.498Z,38.00
2022-12-03T00:53:39.146Z,47.20
2022-12-03T00:58:42.068Z,44.60
2022-12-03T01:03:45.065Z,37.50
2022-12-03T01:08:50.857Z,39.60
2022-12-03T01:13:56.756Z,41.60
2022-12-03T01:18:59.757Z,44.80
2022-12-03T01:24:03.771Z,45.10
2022-12-03T01:29:07.845Z,39.60
2022-12-03T01:34:11.171Z,50.80
2022-12-03T01:39:18.823Z,42.00
2022-12-03T01:44:34.434Z,42.90
2022-12-03T01:50:20.685Z,52.30
2022-12-03T01:55:26.055Z,40.50
2022-12-03T02:00:30.234Z,43.60
2022-12-03T02:05:34.477Z,42.30
2022-12-03T02:10:38.690Z,49.80
2022-12-03T02:15:41.682Z,35.70
2022-12-03T02:20:58.320Z,46.30
2022-12-03T02:26:01.292Z,44.50
2022-12-03T02:31:05.511Z,44.50
2022-12-03T02:36:09.455Z,36.60
2022-12-03T02:41:37.329Z,41.30
2022-12-03T02:46:40.691Z,40.60
2022-12-03T02:51:43.606Z,45.20
2022-12-03T02:56:46.523Z,40.20
2022-12-03T03:01:49.587Z,45.70
2022-12-03T03:06:53.103Z,36.40
2022-12-03T03:11:56.149Z,38.40
2022-12-03T03:16:59.269Z,34.90
2022-12-03T03:22:02.221Z,32.30
2022-12-03T03:27:06.279Z,30.80
2022-12-03T03:32:09.334Z,30.30
2022-12-03T03:37:12.530Z,29.50
2022-12-03T03:42:15.903Z,33.00
2022-12-03T03:47:20.326Z,29.40
2022-12-03T03:52:23.686Z,24.50
2022-12-03T03:57:26.876Z,29.00
2022-12-03T04:02:29.811Z,30.00
2022-12-03T04:07:32.798Z,35.00
2022-12-03T04:12:54.784Z,32.40
2022-12-03T04:18:16.972Z,29.90
2022-12-03T04:23:19.858Z,32.60
2022-12-03T04:28:41.722Z,39.40
2022-12-03T04:34:03.505Z,36.90
2022-12-03T04:39:06.579Z,34.50
2022-12-03T04:44:28.088Z,39.40
2022-12-03T04:49:32.188Z,37.80
2022-12-03T04:54:35.150Z,37.00
2022-12-03T04:59:38.849Z,36.80
2022-12-03T05:04:41.807Z,37.80
2022-12-03T05:09:44.752Z,35.30
2022-12-03T05:14:48.362Z,29.40
2022-12-03T05:20:10.207Z,36.20
2022-12-03T05:25:13.096Z,35.70
2022-12-03T05:30:16.340Z,38.40
2022-12-03T05:35:19.453Z,41.90
2022-12-03T05:40:22.890Z,39.70
2022-12-03T05:45:36.210Z,42.20
2022-12-03T05:50:43.348Z,36.30
2022-12-03T05:55:46.198Z,36.20
2022-12-03T06:00:49.100Z,40.00
2022-12-03T06:05:52.067Z,40.40
2022-12-03T06:10:55.015Z,39.50
2022-12-03T06:15:58.106Z,30.30
2022-12-03T06:21:01.018Z,43.30
2022-12-03T06:26:03.980Z,41.90
2022-12-03T06:31:07.297Z,45.70
2022-12-03T06:36:10.262Z,39.00
2022-12-03T06:41:13.122Z,40.70
2022-12-03T06:46:16.166Z,43.00
2022-12-03T06:51:19.106Z,34.20
2022-12-03T06:56:22.692Z,33.30
2022-12-03T07:01:26.205Z,38.50
2022-12-03T07:06:29.097Z,31.50
2022-12-03T07:11:32.047Z,42.00
2022-12-03T07:16:36.624Z,33.00
2022-12-03T07:21:39.798Z,37.80
2022-12-03T07:26:42.696Z,39.90
2022-12-03T07:31:45.801Z,38.90
2022-12-03T07:36:48.875Z,29.40
2022-12-03T07:41:51.865Z,39.70
2022-12-03T07:46:55.566Z,36.70
2022-12-03T07:51:58.642Z,45.60
2022-12-03T07:57:02.141Z,36.50
2022-12-03T08:02:05.492Z,40.80
2022-12-03T08:07:08.517Z,38.10
2022-12-03T08:12:20.650Z,37.60
2022-12-03T08:17:24.678Z,40.30
2022-12-03T08:22:27.639Z,37.20
2022-12-03T08:27:31.015Z,36.60
2022-12-03T08:32:33.892Z,39.80
2022-12-03T08:37:36.948Z,37.60
2022-12-03T08:42:43.126Z,39.50
2022-12-03T08:47:46.370Z,43.60
2022-12-03T08:52:49.824Z,40.30
2022-12-03T08:57:53.854Z,41.60
2022-12-03T09:03:00.973Z,36.20
2022-12-03T09:08:04.013Z,36.00
2022-12-03T09:13:07.110Z,42.00
2022-12-03T09:18:10.175Z,42.70
2022-12-03T09:23:13.065Z,34.70
2022-12-03T09:28:16.028Z,37.60
2022-12-03T09:33:19.015Z,37.60
2022-12-03T09:38:22.259Z,37.20
2022-12-03T09:43:49.381Z,34.60
2022-12-03T09:48:51.353Z,31.20
2022-12-03T09:53:54.342Z,34.50
2022-12-03T09:58:57.735Z,36.70
2022-12-03T10:04:02.167Z,29.30
2022-12-03T10:09:06.924Z,37.00
2022-12-03T10:14:14.732Z,41.20
2022-12-03T10:19:28.932Z,37.30
2022-12-03T10:24:35.472Z,41.30
2022-12-03T10:29:38.407Z,35.80
2022-12-03T10:34:42.716Z,35.30
2022-12-03T10:40:02.610Z,33.50
2022-12-03T10:45:08.545Z,29.20
2022-12-03T10:50:19.342Z,29.00
2022-12-03T10:55:22.357Z,35.30
2022-12-03T11:00:25.544Z,44.70
2022-12-03T11:05:28.629Z,41.90
2022-12-03T11:10:31.823Z,34.20
2022-12-03T11:15:45.515Z,37.20
2022-12-03T11:21:00.390Z,41.00
2022-12-03T11:26:03.281Z,36.70
2022-12-03T11:31:12.471Z,35.70
2022-12-03T11:36:16.839Z,42.20
2022-12-03T11:41:33.514Z,43.60
2022-12-03T11:46:36.623Z,41.00
2022-12-03T11:51:44.246Z,36.80
2022-12-03T11:56:50.146Z,42.90
2022-12-03T12:01:53.120Z,42.80
2022-12-03T12:06:56.118Z,43.50
2022-12-03T12:12:20.318Z,39.30
2022-12-03T12:17:37.193Z,43.80
2022-12-03T12:22:40.144Z,47.20
2022-12-03T12:27:45.697Z,49.90
2022-12-03T12:32:56.830Z,52.50
2022-12-03T12:38:11.027Z,40.50
2022-12-03T12:43:29.717Z,53.30
2022-12-03T12:48:35.549Z,44.70
2022-12-03T12:53:42.895Z,44.70
2022-12-03T12:58:46.389Z,37.80
2022-12-03T13:03:52.652Z,40.10
2022-12-03T13:08:57.133Z,45.10
2022-12-03T13:14:10.882Z,50.70
2022-12-03T13:19:43.331Z,37.40
2022-12-03T13:24:54.341Z,54.30
2022-12-03T13:30:02.915Z,47.90
2022-12-03T13:35:09.730Z,40.00
2022-12-03T13:40:28.280Z,37.20
2022-12-03T13:45:37.684Z,42.10
2022-12-03T13:50:46.188Z,44.00
2022-12-03T13:56:01.226Z,55.00
2022-12-03T14:01:04.184Z,47.00
2022-12-03T14:06:07.264Z,55.40
2022-12-03T14:11:31.213Z,43.40
2022-12-03T14:16:34.198Z,44.40
2022-12-03T14:21:37.512Z,52.80
2022-12-03T14:26:40.492Z,58.60
2022-12-03T14:31:43.430Z,41.60
2022-12-03T14:36:46.596Z,53.10
2022-12-03T14:42:08.534Z,63.80
2022-12-03T14:47:12.998Z,58.40
2022-12-03T14:52:16.144Z,41.40
2022-12-03T14:57:19.264Z,61.50
2022-12-03T15:02:22.249Z,55.90
2022-12-03T15:07:25.496Z,51.40
2022-12-03T15:12:28.458Z,51.30
2022-12-03T15:17:32.284Z,53.30
2022-12-03T15:22:35.411Z,54.00
2022-12-03T15:27:38.415Z,47.90
2022-12-03T15:32:41.435Z,54.10
2022-12-03T15:37:45.654Z,40.20
2022-12-03T15:42:48.973Z,66.00
2022-12-03T15:47:51.897Z,53.90
2022-12-03T15:52:55.517Z,42.80
2022-12-03T15:57:58.493Z,51.10
2022-12-03T16:03:01.531Z,46.30
2022-12-03T16:08:04.937Z,46.70
2022-12-03T16:13:08.039Z,43.90
2022-12-03T16:18:11.264Z,58.70
2022-12-03T16:23:14.201Z,47.60
2022-12-03T16:28:17.177Z,50.30
2022-12-03T16:33:25.665Z,57.80
2022-12-03T16:38:31.343Z,55.20
2022-12-03T16:43:36.033Z,43.60
2022-12-03T16:48:39.068Z,49.10
2022-12-03T16:53:42.588Z,46.30
2022-12-03T16:58:45.748Z,47.50
2022-12-03T17:03:48.902Z,41.90
2022-12-03T17:08:51.871Z,45.30
2022-12-03T17:13:54.794Z,41.10
2022-12-03T17:18:58.048Z,44.80
2022-12-03T17:24:01.199Z,34.40
2022-12-03T17:29:04.899Z,51.70
2022-12-03T17:34:08.187Z,52.90
2022-12-03T17:39:11.093Z,44.00
2022-12-03T17:44:19.456Z,54.70
2022-12-03T17:49:28.395Z,53.80
2022-12-03T17:55:01.879Z,47.30
2022-12-03T17:59:57.612Z,43.10
2022-12-03T18:05:00.611Z,43.70
2022-12-03T18:10:04.595Z,52.30
2022-12-03T18:15:09.127Z,56.30
2022-12-03T18:20:12.406Z,41.40
2022-12-03T18:25:15.434Z,50.90
2022-12-03T18:30:18.959Z,57.60
2022-12-03T18:35:22.143Z,45.20
2022-12-03T18:40:27.314Z,44.40
2022-12-03T18:45:30.288Z,54.50
2022-12-03T18:50:33.316Z,49.30
2022-12-03T18:55:36.648Z,55.20
2022-12-03T19:00:40.437Z,52.60
2022-12-03T19:05:43.649Z,65.60
2022-12-03T19:10:59.824Z,55.60
2022-12-03T19:16:06.046Z,45.20
2022-12-03T19:21:13.043Z,51.80
2022-12-03T19:26:16.132Z,58.60
2022-12-03T19:31:19.909Z,92.80
2022-12-03T19:36:29.505Z,72.20
2022-12-03T19:41:32.714Z,59.70
2022-12-03T19:46:35.698Z,63.70
2022-12-03T19:51:38.647Z,59.70
2022-12-03T19:56:41.642Z,55.70
2022-12-03T20:01:44.934Z,57.50
2022-12-03T20:06:48.451Z,47.00
2022-12-03T20:11:51.833Z,33.60
2022-12-03T20:16:55.166Z,58.30
2022-12-03T20:22:02.585Z,51.40
2022-12-03T20:27:06.397Z,55.80
2022-12-03T20:32:09.512Z,62.40
2022-12-03T20:37:12.702Z,57.00
2022-12-03T20:42:15.698Z,54.20
2022-12-03T20:47:19.567Z,56.50
2022-12-03T20:52:22.658Z,57.40
2022-12-03T20:57:25.641Z,65.40
2022-12-03T21:02:28.837Z,54.90
2022-12-03T21:07:32.053Z,61.10
2022-12-03T21:12:34.997Z,56.80
2022-12-03T21:17:38.407Z,47.90
2022-12-03T21:22:41.621Z,60.30
2022-12-03T21:27:44.794Z,53.80
2022-12-03T21:32:47.907Z,56.10
2022-12-03T21:37:51.740Z,64.20
2022-12-03T21:42:54.747Z,51.50
2022-12-03T21:47:57.876Z,57.20
2022-12-03T21:53:00.964Z,56.60
2022-12-03T21:58:03.908Z,57.10
2022-12-03T22:03:06.930Z,50.60
2022-12-03T22:08:10.101Z,56.70
2022-12-03T22:13:13.084Z,56.60
2022-12-03T22:18:15.979Z,69.20
2022-12-03T22:23:18.963Z,64.20
2022-12-03T22:28:21.878Z,64.60
2022-12-03T22:33:25.183Z,57.40
2022-12-03T22:38:30.607Z,69.60
2022-12-03T22:43:34.320Z,65.30
2022-12-03T22:48:37.388Z,59.30
2022-12-03T22:53:40.536Z,63.10
2022-12-03T22:58:43.437Z,67.90
2022-12-03T23:03:46.369Z,61.30
2022-12-03T23:08:50.458Z,58.00
2022-12-03T23:13:54.306Z,66.90
2022-12-03T23:19:02.224Z,65.90
2022-12-03T23:24:06.314Z,65.10
2022-12-03T23:29:09.325Z,68.90
2022-12-03T23:34:12.336Z,65.10
2022-12-03T23:39:15.439Z,71.90
2022-12-03T23:44:18.927Z,72.40
2022-12-03T23:49:21.854Z,67.80
2022-12-03T23:54:24.928Z,68.70
2022-12-03T23:59:27.915Z,65.30
